createdAt,value
2019-01-08T00:01:46.026Z,14.40
2019-01-08T00:04:14.996Z,13.90
2019-01-08T00:06:43.897Z,14.60
2019-01-08T00:09:12.742Z,13.75
2019-01-08T00:11:41.573Z,14.18
2019-01-08T00:14:29.609Z,15.05
2019-01-08T00:16:58.722Z,13.27
2019-01-08T00:19:27.644Z,16.60
2019-01-08T00:21:56.478Z,15.28
2019-01-08T00:24:25.897Z,17.35
2019-01-08T00:26:54.724Z,16.55
2019-01-08T00:29:23.561Z,16.82
2019-01-08T00:31:52.384Z,19.65
2019-01-08T00:34:21.240Z,18.73
2019-01-08T00:36:50.069Z,17.77
2019-01-08T00:39:18.997Z,18.70
2019-01-08T00:41:47.884Z,21.55
2019-01-08T00:44:16.736Z,19.23
2019-01-08T00:46:45.569Z,19.25
2019-01-08T00:49:14.407Z,18.30
2019-01-08T00:51:43.319Z,20.30
2019-01-08T00:54:12.173Z,25.97
2019-01-08T00:56:41.014Z,21.57
2019-01-08T00:59:09.850Z,19.92
2019-01-08T01:01:39.039Z,21.43
2019-01-08T01:04:07.959Z,19.30
2019-01-08T01:06:36.870Z,19.75
2019-01-08T01:09:07.092Z,21.68
2019-01-08T01:11:36.104Z,17.75
2019-01-08T01:14:05.334Z,21.07
2019-01-08T01:16:34.160Z,19.67
2019-01-08T01:19:03.632Z,23.27
2019-01-08T01:21:32.465Z,23.18
2019-01-08T01:24:01.322Z,23.55
2019-01-08T01:26:30.419Z,21.37
2019-01-08T01:29:00.075Z,19.70
2019-01-08T01:31:29.757Z,21.55
2019-01-08T01:33:58.593Z,22.80
2019-01-08T01:36:27.522Z,20.60
2019-01-08T01:38:56.701Z,22.37
2019-01-08T01:41:25.926Z,22.20
2019-01-08T01:43:54.757Z,25.95
2019-01-08T01:46:23.717Z,23.62
2019-01-08T01:48:52.532Z,22.42
2019-01-08T01:51:40.649Z,22.43
2019-01-08T01:54:09.571Z,22.90
2019-01-08T01:56:38.421Z,22.98
2019-01-08T01:59:08.623Z,25.10
2019-01-08T02:01:37.766Z,23.83
2019-01-08T02:04:06.920Z,28.00
2019-01-08T02:06:35.859Z,25.65
2019-01-08T02:09:06.153Z,23.67
2019-01-08T02:11:35.169Z,22.35
2019-01-08T02:14:04.147Z,26.35
2019-01-08T02:16:33.078Z,20.70
2019-01-08T02:19:02.410Z,22.90
2019-01-08T02:21:31.346Z,24.43
2019-01-08T02:24:00.793Z,21.87
2019-01-08T02:26:29.721Z,21.07
2019-01-08T02:28:58.628Z,20.60
2019-01-08T02:31:27.546Z,23.30
2019-01-08T02:33:56.501Z,23.55
2019-01-08T02:36:25.422Z,22.77
2019-01-08T02:38:54.350Z,18.40
2019-01-08T02:41:23.335Z,19.98
2019-01-08T02:43:52.309Z,20.23
2019-01-08T02:46:21.726Z,18.95
2019-01-08T02:48:50.713Z,19.45
2019-01-08T02:51:19.710Z,20.43
2019-01-08T02:53:48.571Z,19.65
2019-01-08T02:56:17.899Z,21.95
2019-01-08T02:58:46.852Z,22.50
2019-01-08T03:01:15.775Z,19.20
2019-01-08T03:03:45.057Z,21.52
2019-01-08T03:06:14.206Z,21.30
2019-01-08T03:08:43.072Z,20.70
2019-01-08T03:11:12.066Z,17.55
2019-01-08T03:13:41.182Z,17.67
2019-01-08T03:16:10.173Z,16.20
2019-01-08T03:18:39.202Z,16.20
2019-01-08T03:21:08.125Z,17.27
2019-01-08T03:23:37.158Z,17.67
2019-01-08T03:26:06.710Z,16.25
2019-01-08T03:28:35.834Z,13.62
2019-01-08T03:31:04.825Z,18.52
2019-01-08T03:33:33.845Z,16.03
2019-01-08T03:36:03.113Z,16.52
2019-01-08T03:38:32.113Z,16.13
2019-01-08T03:41:01.100Z,17.65
2019-01-08T03:43:30.478Z,16.65
2019-01-08T03:45:59.589Z,18.23
2019-01-08T03:48:28.563Z,16.55
2019-01-08T03:50:57.498Z,14.00
2019-01-08T03:53:26.694Z,16.77
2019-01-08T03:55:55.683Z,12.23
2019-01-08T03:58:24.689Z,13.83
2019-01-08T04:00:53.682Z,14.55
2019-01-08T04:03:22.684Z,15.13
2019-01-08T04:05:51.912Z,18.15
2019-01-08T04:08:21.223Z,14.53
2019-01-08T04:10:50.213Z,13.55
2019-01-08T04:13:19.085Z,13.75
2019-01-08T04:15:48.284Z,11.90
2019-01-08T04:18:17.217Z,13.50
2019-01-08T04:20:46.213Z,13.30
2019-01-08T04:23:15.474Z,12.30
2019-01-08T04:25:44.410Z,14.40
2019-01-08T04:28:13.329Z,14.50
2019-01-08T04:30:42.493Z,11.12
2019-01-08T04:33:11.364Z,9.88
2019-01-08T04:35:40.233Z,13.20
2019-01-08T04:38:10.056Z,10.80
2019-01-08T04:40:39.349Z,13.80
2019-01-08T04:43:08.201Z,12.80
2019-01-08T04:45:37.147Z,12.95
2019-01-08T04:48:06.297Z,10.40
2019-01-08T04:50:35.220Z,9.85
2019-01-08T04:53:04.132Z,8.88
2019-01-08T04:55:33.001Z,10.23
2019-01-08T04:58:01.854Z,8.80
2019-01-08T05:00:30.848Z,10.80
2019-01-08T05:03:00.161Z,8.60
2019-01-08T05:05:29.093Z,9.68
2019-01-08T05:07:58.290Z,11.28
2019-01-08T05:10:27.584Z,7.72
2019-01-08T05:12:56.865Z,7.72
2019-01-08T05:15:26.209Z,9.78
2019-01-08T05:17:55.218Z,8.48
2019-01-08T05:20:24.448Z,10.60
2019-01-08T05:22:53.746Z,8.18
2019-01-08T05:25:22.600Z,7.37
2019-01-08T05:27:51.451Z,9.70
2019-01-08T05:30:20.737Z,8.10
2019-01-08T05:32:49.740Z,7.37
2019-01-08T05:35:19.021Z,7.90
2019-01-08T05:37:47.941Z,8.35
2019-01-08T05:40:16.869Z,9.45
2019-01-08T05:42:46.172Z,9.10
2019-01-08T05:45:15.118Z,8.18
2019-01-08T05:47:43.969Z,8.58
2019-01-08T05:50:12.981Z,9.60
2019-01-08T05:52:42.040Z,7.95
2019-01-08T05:55:11.162Z,7.87
2019-01-08T05:57:40.331Z,8.73
2019-01-08T06:00:16.268Z,12.20
2019-01-08T06:02:40.263Z,12.73
2019-01-08T06:05:09.273Z,9.95
2019-01-08T06:07:38.291Z,12.10
2019-01-08T06:10:08.568Z,11.03
2019-01-08T06:12:37.565Z,10.60
2019-01-08T06:15:06.578Z,14.80
2019-01-08T06:17:35.560Z,8.88
2019-01-08T06:20:04.521Z,8.33
2019-01-08T06:22:33.389Z,8.38
2019-01-08T06:25:02.373Z,6.80
2019-01-08T06:27:31.533Z,9.60
2019-01-08T06:30:00.451Z,9.53
2019-01-08T06:32:29.301Z,7.42
2019-01-08T06:34:58.296Z,7.25
2019-01-08T06:37:27.155Z,7.65
2019-01-08T06:39:56.600Z,7.28
2019-01-08T06:42:25.828Z,6.85
2019-01-08T06:44:54.688Z,6.85
2019-01-08T06:47:23.616Z,7.05
2019-01-08T06:49:52.524Z,7.33
2019-01-08T06:52:21.364Z,7.35
2019-01-08T06:54:50.481Z,7.30
2019-01-08T06:57:19.998Z,7.03
2019-01-08T06:59:48.913Z,7.28
2019-01-08T07:02:17.929Z,7.50
2019-01-08T07:04:46.777Z,7.78
2019-01-08T07:07:15.713Z,6.30
2019-01-08T07:09:44.636Z,6.90
2019-01-08T07:12:13.641Z,6.15
2019-01-08T07:14:42.909Z,6.77
2019-01-08T07:17:11.753Z,6.78
2019-01-08T07:19:41.316Z,7.97
2019-01-08T07:22:10.161Z,7.40
2019-01-08T07:24:39.066Z,6.30
2019-01-08T07:27:16.132Z,7.60
2019-01-08T07:29:39.008Z,6.08
2019-01-08T07:32:07.936Z,6.40
2019-01-08T07:34:48.782Z,8.13
2019-01-08T07:37:17.650Z,6.33
2019-01-08T07:39:46.591Z,7.50
2019-01-08T07:42:15.506Z,6.70
2019-01-08T07:44:44.480Z,6.22
2019-01-08T07:47:13.396Z,6.42
2019-01-08T07:49:42.250Z,6.20
2019-01-08T07:52:11.189Z,6.83
2019-01-08T07:54:40.034Z,6.10
2019-01-08T07:57:08.961Z,6.03
2019-01-08T07:59:37.865Z,6.13
2019-01-08T08:02:06.952Z,6.17
2019-01-08T08:04:35.917Z,5.67
2019-01-08T08:07:05.098Z,5.72
2019-01-08T08:09:34.765Z,5.60
2019-01-08T08:12:03.680Z,6.42
2019-01-08T08:14:32.687Z,6.53
2019-01-08T08:17:01.597Z,6.28
2019-01-08T08:19:30.765Z,4.97
2019-01-08T08:21:59.618Z,5.20
2019-01-08T08:24:28.534Z,5.53
2019-01-08T08:26:57.809Z,5.03
2019-01-08T08:29:26.645Z,5.12
2019-01-08T08:31:55.561Z,5.00
2019-01-08T08:34:24.500Z,4.30
2019-01-08T08:36:53.678Z,4.85
2019-01-08T08:39:23.005Z,4.00
2019-01-08T08:41:51.844Z,4.15
2019-01-08T08:44:20.695Z,5.25
2019-01-08T08:46:49.868Z,4.90
2019-01-08T08:49:18.788Z,4.40
2019-01-08T08:51:47.668Z,4.70
2019-01-08T08:54:16.584Z,4.78
2019-01-08T08:56:45.425Z,5.10
2019-01-08T08:59:14.351Z,4.67
2019-01-08T09:01:43.710Z,6.25
2019-01-08T09:04:12.569Z,5.20
2019-01-08T09:06:41.501Z,4.70
2019-01-08T09:09:10.492Z,5.47
2019-01-08T09:11:39.512Z,4.62
2019-01-08T09:14:08.426Z,5.42
2019-01-08T09:16:37.766Z,5.37
2019-01-08T09:19:06.992Z,4.40
2019-01-08T09:21:36.292Z,4.60
2019-01-08T09:24:05.558Z,3.75
2019-01-08T09:26:34.477Z,4.00
2019-01-08T09:29:03.387Z,4.08
2019-01-08T09:31:32.208Z,4.60
2019-01-08T09:34:01.060Z,3.98
2019-01-08T09:36:29.912Z,3.98
2019-01-08T09:38:58.753Z,4.20
2019-01-08T09:41:27.676Z,3.97
2019-01-08T09:43:56.596Z,3.47
2019-01-08T09:46:25.581Z,3.72
2019-01-08T09:48:54.673Z,3.42
2019-01-08T09:51:23.652Z,3.50
2019-01-08T09:53:52.561Z,3.90
2019-01-08T09:56:40.662Z,4.10
2019-01-08T09:59:09.885Z,7.67
2019-01-08T10:01:38.792Z,4.55
2019-01-08T10:04:07.804Z,5.83
2019-01-08T10:06:36.973Z,5.70
2019-01-08T10:09:06.852Z,4.45
2019-01-08T10:11:35.766Z,2.90
2019-01-08T10:14:04.788Z,2.80
2019-01-08T10:16:33.996Z,2.90
2019-01-08T10:19:02.908Z,2.47
2019-01-08T10:21:31.902Z,2.90
2019-01-08T10:24:02.069Z,2.40
2019-01-08T10:26:31.473Z,2.57
2019-01-08T10:29:00.680Z,2.50
2019-01-08T10:31:32.571Z,2.85
2019-01-08T10:34:00.413Z,2.20
2019-01-08T10:36:29.432Z,2.33
2019-01-08T10:38:58.339Z,2.17
2019-01-08T10:41:27.252Z,2.22
2019-01-08T10:43:56.160Z,2.37
2019-01-08T10:46:25.174Z,2.20
2019-01-08T10:48:54.097Z,2.70
2019-01-08T10:51:23.013Z,2.80
2019-01-08T10:53:51.986Z,2.87
2019-01-08T10:56:20.922Z,2.80
2019-01-08T10:58:49.926Z,2.50
2019-01-08T11:01:18.933Z,2.98
2019-01-08T11:03:47.787Z,2.60
2019-01-08T11:06:16.977Z,2.90
2019-01-08T11:08:45.894Z,2.50
2019-01-08T11:11:14.885Z,2.90
2019-01-08T11:13:43.814Z,3.10
2019-01-08T11:16:12.668Z,3.22
2019-01-08T11:18:41.861Z,3.10
2019-01-08T11:21:10.782Z,3.90
2019-01-08T11:23:39.692Z,3.20
2019-01-08T11:26:08.633Z,3.50
2019-01-08T11:28:37.636Z,3.22
2019-01-08T11:31:06.477Z,3.45
2019-01-08T11:33:35.360Z,4.70
2019-01-08T11:36:04.363Z,2.80
2019-01-08T11:38:33.593Z,2.90
2019-01-08T11:41:02.524Z,2.85
2019-01-08T11:43:31.436Z,3.15
2019-01-08T11:46:00.416Z,2.90
2019-01-08T11:48:29.360Z,2.90
2019-01-08T11:50:58.442Z,3.10
2019-01-08T11:53:27.368Z,2.80
2019-01-08T11:55:56.216Z,2.70
2019-01-08T11:58:25.416Z,2.62
2019-01-08T12:00:54.397Z,2.75
2019-01-08T12:03:23.324Z,3.80
2019-01-08T12:05:52.337Z,2.53
2019-01-08T12:08:21.396Z,2.62
2019-01-08T12:10:50.574Z,2.47
2019-01-08T12:13:19.523Z,2.52
2019-01-08T12:15:48.438Z,2.42
2019-01-08T12:18:17.292Z,2.77
2019-01-08T12:20:46.540Z,2.50
2019-01-08T12:23:15.513Z,2.40
2019-01-08T12:25:44.498Z,2.77
2019-01-08T12:28:13.421Z,2.60
2019-01-08T12:30:42.253Z,2.80
2019-01-08T12:33:11.184Z,2.60
2019-01-08T12:35:40.177Z,2.92
2019-01-08T12:38:09.206Z,5.35
2019-01-08T12:40:38.377Z,2.45
2019-01-08T12:43:07.309Z,2.60
2019-01-08T12:45:36.284Z,4.53
2019-01-08T12:48:05.213Z,4.08
2019-01-08T12:50:34.541Z,3.53
2019-01-08T12:53:03.749Z,2.30
2019-01-08T12:55:32.748Z,2.98
2019-01-08T12:58:01.624Z,3.52
2019-01-08T13:00:30.598Z,2.17
2019-01-08T13:02:59.536Z,3.02
2019-01-08T13:05:28.757Z,2.25
2019-01-08T13:07:57.937Z,2.70
2019-01-08T13:10:27.104Z,2.80
2019-01-08T13:12:56.093Z,4.40
2019-01-08T13:15:25.064Z,3.05
2019-01-08T13:17:54.288Z,5.00
2019-01-08T13:20:23.201Z,4.30
2019-01-08T13:22:52.213Z,2.52
2019-01-08T13:25:21.218Z,1.90
2019-01-08T13:27:50.067Z,1.80
2019-01-08T13:30:18.991Z,4.40
2019-01-08T13:32:47.980Z,2.60
2019-01-08T13:35:17.545Z,2.67
2019-01-08T13:37:46.447Z,1.92
2019-01-08T13:40:15.445Z,1.80
2019-01-08T13:42:44.718Z,3.40
2019-01-08T13:45:13.712Z,3.60
2019-01-08T13:47:42.637Z,2.25
2019-01-08T13:50:11.552Z,4.50
2019-01-08T13:52:40.817Z,2.67
2019-01-08T13:55:09.817Z,3.05
2019-01-08T13:57:38.729Z,1.60
2019-01-08T14:00:08.437Z,2.17
2019-01-08T14:02:37.408Z,1.67
2019-01-08T14:05:06.338Z,12.20
2019-01-08T14:07:35.565Z,2.70
2019-01-08T14:10:04.828Z,3.70
2019-01-08T14:12:33.745Z,1.90
2019-01-08T14:15:02.739Z,1.47
2019-01-08T14:17:31.669Z,3.75
2019-01-08T14:20:00.682Z,2.00
2019-01-08T14:22:29.609Z,3.30
2019-01-08T14:24:58.753Z,5.28
2019-01-08T14:27:28.012Z,1.70
2019-01-08T14:29:56.921Z,2.80
2019-01-08T14:32:25.909Z,6.53
2019-01-08T14:34:54.929Z,11.57
2019-01-08T14:37:23.865Z,15.38
2019-01-08T14:39:52.721Z,12.13
2019-01-08T14:42:22.077Z,2.25
2019-01-08T14:44:51.449Z,2.42
2019-01-08T14:47:20.458Z,3.60
2019-01-08T14:49:49.674Z,1.77
2019-01-08T14:52:18.605Z,3.08
2019-01-08T14:54:47.585Z,4.12
2019-01-08T14:57:16.429Z,6.30
2019-01-08T14:59:45.366Z,4.10
2019-01-08T15:02:14.288Z,2.47
2019-01-08T15:04:43.273Z,3.30
2019-01-08T15:07:12.274Z,3.35
2019-01-08T15:09:41.176Z,6.35
2019-01-08T15:12:10.189Z,2.97
2019-01-08T15:14:39.045Z,4.15
2019-01-08T15:17:07.984Z,2.15
2019-01-08T15:19:36.884Z,4.30
2019-01-08T15:22:05.984Z,1.60
2019-01-08T15:24:34.824Z,1.90
2019-01-08T15:27:03.835Z,4.97
2019-01-08T15:29:32.892Z,6.80
2019-01-08T15:32:01.889Z,10.30
2019-01-08T15:34:30.877Z,6.22
2019-01-08T15:36:59.796Z,4.92
2019-01-08T15:39:28.789Z,5.33
2019-01-08T15:41:58.883Z,3.25
2019-01-08T15:44:28.000Z,5.07
2019-01-08T15:46:56.925Z,4.78
2019-01-08T15:49:26.099Z,4.75
2019-01-08T15:51:54.948Z,13.00
2019-01-08T15:54:23.924Z,5.10
2019-01-08T15:56:52.768Z,5.92
2019-01-08T15:59:21.684Z,7.10
2019-01-08T16:01:50.538Z,7.47
2019-01-08T16:04:20.152Z,5.33
2019-01-08T16:06:49.748Z,3.63
2019-01-08T16:09:18.733Z,5.78
2019-01-08T16:11:47.648Z,7.37
2019-01-08T16:14:16.578Z,5.40
2019-01-08T16:16:45.510Z,7.90
2019-01-08T16:19:14.493Z,5.28
2019-01-08T16:21:43.408Z,8.78
2019-01-08T16:24:12.744Z,3.60
2019-01-08T16:26:41.606Z,4.65
2019-01-08T16:29:10.500Z,2.72
2019-01-08T16:31:39.704Z,10.60
2019-01-08T16:34:08.998Z,7.30
2019-01-08T16:36:37.821Z,3.08
2019-01-08T16:39:08.252Z,6.25
2019-01-08T16:41:37.240Z,2.72
2019-01-08T16:44:06.224Z,8.60
2019-01-08T16:46:35.225Z,5.03
2019-01-08T16:49:04.186Z,5.40
2019-01-08T16:51:33.110Z,4.87
2019-01-08T16:54:02.030Z,5.00
2019-01-08T16:56:30.864Z,7.25
2019-01-08T16:58:59.713Z,5.47
2019-01-08T17:01:29.257Z,3.22
2019-01-08T17:03:58.302Z,4.97
2019-01-08T17:06:27.232Z,3.58
2019-01-08T17:08:56.077Z,7.08
2019-01-08T17:11:24.998Z,4.30
2019-01-08T17:13:53.918Z,6.00
2019-01-08T17:16:22.892Z,2.60
2019-01-08T17:18:51.823Z,4.40
2019-01-08T17:21:20.817Z,6.10
2019-01-08T17:23:49.753Z,4.12
2019-01-08T17:26:18.725Z,3.83
2019-01-08T17:28:47.582Z,2.37
2019-01-08T17:31:16.556Z,4.90
2019-01-08T17:33:45.414Z,3.95
2019-01-08T17:36:14.248Z,2.83
2019-01-08T17:38:43.444Z,3.70
2019-01-08T17:41:12.355Z,2.62
2019-01-08T17:43:41.513Z,2.50
2019-01-08T17:46:10.450Z,3.05
2019-01-08T17:48:39.293Z,4.85
2019-01-08T17:51:08.128Z,3.27
2019-01-08T17:53:37.121Z,5.15
2019-01-08T17:56:25.152Z,3.87
2019-01-08T17:59:14.933Z,5.85
2019-01-08T18:01:56.413Z,3.00
2019-01-08T18:04:25.348Z,3.62
2019-01-08T18:06:54.270Z,2.70
2019-01-08T18:09:23.178Z,3.60
2019-01-08T18:11:52.158Z,2.70
2019-01-08T18:14:21.016Z,16.37
2019-01-08T18:16:49.860Z,5.67
2019-01-08T18:19:18.721Z,5.00
2019-01-08T18:21:47.977Z,5.47
2019-01-08T18:24:17.221Z,5.70
2019-01-08T18:26:46.479Z,4.47
2019-01-08T18:29:15.405Z,4.85
2019-01-08T18:31:44.248Z,4.97
2019-01-08T18:34:13.273Z,8.13
2019-01-08T18:36:42.549Z,11.57
2019-01-08T18:39:11.461Z,11.38
2019-01-08T18:41:40.481Z,6.30
2019-01-08T18:44:09.479Z,5.45
2019-01-08T18:46:38.820Z,3.80
2019-01-08T18:49:08.082Z,5.10
2019-01-08T18:51:37.074Z,4.50
2019-01-08T18:54:06.318Z,3.70
2019-01-08T18:56:35.175Z,7.40
2019-01-08T18:59:04.174Z,6.45
2019-01-08T19:01:33.171Z,11.30
2019-01-08T19:04:02.084Z,7.12
2019-01-08T19:06:31.090Z,5.12
2019-01-08T19:09:31.776Z,8.08
2019-01-08T19:12:00.740Z,5.45
2019-01-08T19:14:38.149Z,6.87
2019-01-08T19:17:07.161Z,5.35
2019-01-08T19:19:36.478Z,4.67
2019-01-08T19:22:05.568Z,6.60
2019-01-08T19:24:34.489Z,5.72
2019-01-08T19:27:03.415Z,4.60
2019-01-08T19:29:32.653Z,4.60
2019-01-08T19:32:01.855Z,5.20
2019-01-08T19:34:30.720Z,10.55
2019-01-08T19:36:59.936Z,5.95
2019-01-08T19:39:28.838Z,9.63
2019-01-08T19:41:58.085Z,9.27
2019-01-08T19:44:27.065Z,8.67
2019-01-08T19:46:56.073Z,5.00
2019-01-08T19:49:24.988Z,8.60
2019-01-08T19:51:54.316Z,10.65
2019-01-08T19:54:23.438Z,8.28
2019-01-08T19:56:52.448Z,10.60
2019-01-08T19:59:21.609Z,10.93
2019-01-08T20:01:50.456Z,8.30
2019-01-08T20:04:19.461Z,10.78
2019-01-08T20:06:48.366Z,7.17
2019-01-08T20:09:25.117Z,7.75
2019-01-08T20:11:48.244Z,5.58
2019-01-08T20:14:18.157Z,4.60
2019-01-08T20:16:47.073Z,6.53
2019-01-08T20:19:16.214Z,3.45
2019-01-08T20:21:45.209Z,6.17
2019-01-08T20:24:14.066Z,3.80
2019-01-08T20:26:42.989Z,3.95
2019-01-08T20:29:11.909Z,4.33
2019-01-08T20:31:40.873Z,4.20
2019-01-08T20:34:09.873Z,5.13
2019-01-08T20:36:38.806Z,6.95
2019-01-08T20:39:12.816Z,4.10
2019-01-08T20:41:41.862Z,5.70
2019-01-08T20:44:10.849Z,4.17
2019-01-08T20:46:39.762Z,4.85
2019-01-08T20:49:08.609Z,5.07
2019-01-08T20:51:37.795Z,4.40
2019-01-08T20:54:06.721Z,7.20
2019-01-08T20:56:35.564Z,6.00
2019-01-08T20:59:04.561Z,6.28
2019-01-08T21:01:33.414Z,6.30
2019-01-08T21:04:02.335Z,7.60
2019-01-08T21:06:31.333Z,4.83
2019-01-08T21:09:00.541Z,7.40
2019-01-08T21:11:30.036Z,4.30
2019-01-08T21:13:59.040Z,4.58
2019-01-08T21:16:27.893Z,4.05
2019-01-08T21:18:56.813Z,5.85
2019-01-08T21:21:25.704Z,4.42
2019-01-08T21:23:54.698Z,4.33
2019-01-08T21:26:24.201Z,4.72
2019-01-08T21:28:53.127Z,7.17
2019-01-08T21:31:22.028Z,6.53
2019-01-08T21:33:51.660Z,5.60
2019-01-08T21:36:20.689Z,6.50
2019-01-08T21:38:49.878Z,5.40
2019-01-08T21:41:18.705Z,4.80
2019-01-08T21:43:47.621Z,6.17
2019-01-08T21:46:16.567Z,3.10
2019-01-08T21:48:45.488Z,8.85
2019-01-08T21:51:14.327Z,13.30
2019-01-08T21:53:43.202Z,11.60
2019-01-08T21:56:12.128Z,10.30
2019-01-08T21:58:41.049Z,11.22
2019-01-08T22:01:10.300Z,6.65
2019-01-08T22:03:39.225Z,9.90
2019-01-08T22:06:08.207Z,7.50
2019-01-08T22:08:37.365Z,9.25
2019-01-08T22:11:06.345Z,4.12
2019-01-08T22:13:35.565Z,4.20
2019-01-08T22:16:04.538Z,4.55
2019-01-08T22:18:33.794Z,6.60
2019-01-08T22:21:02.625Z,5.10
2019-01-08T22:23:31.967Z,7.67
2019-01-08T22:26:01.229Z,7.12
2019-01-08T22:28:30.131Z,5.62
2019-01-08T22:30:59.803Z,5.42
2019-01-08T22:33:28.731Z,4.72
2019-01-08T22:35:57.742Z,4.95
2019-01-08T22:38:26.737Z,5.03
2019-01-08T22:40:56.122Z,4.95
2019-01-08T22:43:25.100Z,6.22
2019-01-08T22:45:54.103Z,7.17
2019-01-08T22:48:23.385Z,5.60
2019-01-08T22:50:52.388Z,12.13
2019-01-08T22:53:21.461Z,8.68
2019-01-08T22:55:50.449Z,8.10
2019-01-08T22:58:19.921Z,6.72
2019-01-08T23:01:08.229Z,6.70
2019-01-08T23:03:37.755Z,5.28
2019-01-08T23:06:06.744Z,8.17
2019-01-08T23:08:35.753Z,6.75
2019-01-08T23:11:04.797Z,5.42
2019-01-08T23:13:33.712Z,6.55
2019-01-08T23:16:02.700Z,6.85
2019-01-08T23:18:31.674Z,4.03
2019-01-08T23:21:01.013Z,6.42
2019-01-08T23:23:29.973Z,5.35
2019-01-08T23:25:59.000Z,5.15
2019-01-08T23:28:27.985Z,8.85
2019-01-08T23:30:56.977Z,5.43
2019-01-08T23:33:25.968Z,2.60
2019-01-08T23:35:55.283Z,4.87
2019-01-08T23:38:24.269Z,3.40
2019-01-08T23:40:53.577Z,6.53
2019-01-08T23:43:22.604Z,3.60
2019-01-08T23:45:51.592Z,3.17
2019-01-08T23:48:20.604Z,1.80
2019-01-08T23:50:49.605Z,7.28
2019-01-08T23:53:32.885Z,2.70
2019-01-08T23:56:05.907Z,5.85
2019-01-08T23:58:34.885Z,5.20
